Aérodrome :
LOGIN :

S'inscrire | Disclaimer

   EN    FR    IT 

 










Légende :    VFR   VFR Marginal   IFR   IFR Intensif   IFR Très Intensif
Visi : 
Plafond : 
>= 8 km
>= 3000ft
5 à 8 km
1000 à 3000 ft
1500m à 5 km
500 à 1000 ft
800 à 1500m
200 à 500 ft
< 800m
< 200 ft
Symboles :   Orages  Brouillard  Fortes neiges  Fortes précipitations  Vent > 20 kt
SIGMETs :   Divers  Orages  Givrage  Turbulence  Onde Orograph.  Cendres Volcan.







- Altitude de l'aérodrome : 300 ft
- Code IATA : MLA


LMML - Malta Luqa

DERNIER METAR :
  • 170715Z 32014KT CAVOK 28/21 Q1014 NOSIG

METARs EXPIRÉS :
  • 170645Z 33013KT 9999 FEW012 27/22 Q1014 NOSIG
  • 170615Z 33014KT 9999 FEW010 26/22 Q1014 NOSIG
  • 170545Z 34012KT 9999 FEW010 25/23 Q1014 NOSIG
  • 170515Z 33012KT 9999 BKN010 25/23 Q1014 NOSIG
  • 170445Z 30009KT 9999 SCT007 24/23 Q1014 NOSIG

TAF TAF LMML
Valide du 17 à 06h jusqu'au 18 à 06h UTC


170500Z 1706/1806 31015KT 9999 FEW006
PROB40 1706/1708 BKN006
TEMPO 1708/1803 31020G30KT
PROB40 1723/1806 8000 BKN007
Pas de NOTAMs connus pour ce terrain.



MET'MAP, la Météo Aéronautique d'un coup d'oeil ! - Copyright ORBIFLY Décembre 2007 - Disclaimer

ORBIFLY MET'MAP TEAM :

Programmation & Développement : Alexandra Zaïnal
Conception & Développement : Baudouin d'Aumeries
Co-Programmation & Développement : Marc-Olivier Méhu
Soutien technique & logistique : Manuel Goepfert

Contact : metmap@orbifly.com




SOURCES & CREDITS :

   NOAA